sensor_id;sensor_type;location;lat;lon;timestamp;P1;durP1;ratioP1;P2;durP2;ratioP2
41323;SDS011;27073;51.128;4.220;2022-08-07T00:01:08;5.82;;;3.40;;
41323;SDS011;27073;51.128;4.220;2022-08-07T00:03:34;4.75;;;3.45;;
41323;SDS011;27073;51.128;4.220;2022-08-07T00:06:00;4.32;;;3.50;;
41323;SDS011;27073;51.128;4.220;2022-08-07T00:08:26;5.07;;;3.50;;
41323;SDS011;27073;51.128;4.220;2022-08-07T00:10:52;3.97;;;3.58;;
41323;SDS011;27073;51.128;4.220;2022-08-07T00:13:19;5.00;;;3.45;;
41323;SDS011;27073;51.128;4.220;2022-08-07T00:15:45;6.53;;;3.90;;
41323;SDS011;27073;51.128;4.220;2022-08-07T00:18:13;5.63;;;3.70;;
41323;SDS011;27073;51.128;4.220;2022-08-07T00:20:40;4.15;;;3.45;;
41323;SDS011;27073;51.128;4.220;2022-08-07T00:23:06;6.38;;;4.00;;
41323;SDS011;27073;51.128;4.220;2022-08-07T00:25:32;6.25;;;3.75;;
41323;SDS011;27073;51.128;4.220;2022-08-07T00:27:58;5.80;;;3.88;;
41323;SDS011;27073;51.128;4.220;2022-08-07T00:30:24;4.57;;;4.03;;
41323;SDS011;27073;51.128;4.220;2022-08-07T00:32:50;6.22;;;4.10;;
41323;SDS011;27073;51.128;4.220;2022-08-07T00:35:16;6.63;;;3.88;;
41323;SDS011;27073;51.128;4.220;2022-08-07T00:37:43;5.28;;;3.60;;
41323;SDS011;27073;51.128;4.220;2022-08-07T00:40:10;5.35;;;3.72;;
41323;SDS011;27073;51.128;4.220;2022-08-07T00:42:37;5.28;;;3.92;;
41323;SDS011;27073;51.128;4.220;2022-08-07T00:45:03;7.03;;;4.32;;
41323;SDS011;27073;51.128;4.220;2022-08-07T00:47:30;5.45;;;4.10;;
41323;SDS011;27073;51.128;4.220;2022-08-07T00:49:56;5.25;;;4.28;;
41323;SDS011;27073;51.128;4.220;2022-08-07T00:52:22;4.82;;;3.40;;
41323;SDS011;27073;51.128;4.220;2022-08-07T00:54:48;7.25;;;4.05;;
41323;SDS011;27073;51.128;4.220;2022-08-07T00:57:14;7.32;;;4.15;;
41323;SDS011;27073;51.128;4.220;2022-08-07T00:59:41;5.40;;;4.32;;
41323;SDS011;27073;51.128;4.220;2022-08-07T01:02:07;5.15;;;3.60;;
41323;SDS011;27073;51.128;4.220;2022-08-07T01:04:33;4.88;;;3.88;;
41323;SDS011;27073;51.128;4.220;2022-08-07T01:06:59;5.30;;;4.00;;
41323;SDS011;27073;51.128;4.220;2022-08-07T01:09:25;6.35;;;4.05;;
41323;SDS011;27073;51.128;4.220;2022-08-07T01:11:52;6.82;;;4.45;;
41323;SDS011;27073;51.128;4.220;2022-08-07T01:14:19;6.25;;;4.28;;
41323;SDS011;27073;51.128;4.220;2022-08-07T01:16:46;5.78;;;4.55;;
41323;SDS011;27073;51.128;4.220;2022-08-07T01:19:12;4.78;;;4.28;;
41323;SDS011;27073;51.128;4.220;2022-08-07T01:21:39;7.47;;;4.90;;
41323;SDS011;27073;51.128;4.220;2022-08-07T01:24:05;6.00;;;4.45;;
41323;SDS011;27073;51.128;4.220;2022-08-07T01:26:32;6.05;;;4.95;;
41323;SDS011;27073;51.128;4.220;2022-08-07T01:28:59;6.53;;;4.93;;
41323;SDS011;27073;51.128;4.220;2022-08-07T01:31:27;7.32;;;4.88;;
41323;SDS011;27073;51.128;4.220;2022-08-07T01:33:57;5.30;;;4.80;;
41323;SDS011;27073;51.128;4.220;2022-08-07T01:36:28;6.93;;;5.13;;
41323;SDS011;27073;51.128;4.220;2022-08-07T01:38:56;5.50;;;4.97;;
41323;SDS011;27073;51.128;4.220;2022-08-07T01:41:23;6.75;;;5.30;;
41323;SDS011;27073;51.128;4.220;2022-08-07T01:43:50;6.25;;;5.13;;
41323;SDS011;27073;51.128;4.220;2022-08-07T01:46:16;6.70;;;5.28;;
41323;SDS011;27073;51.128;4.220;2022-08-07T01:48:44;5.80;;;5.13;;
41323;SDS011;27073;51.128;4.220;2022-08-07T01:51:19;8.52;;;5.55;;
41323;SDS011;27073;51.128;4.220;2022-08-07T01:53:48;7.55;;;5.43;;
41323;SDS011;27073;51.128;4.220;2022-08-07T01:59:07;9.32;;;5.25;;
41323;SDS011;27073;51.128;4.220;2022-08-07T02:01:47;7.97;;;5.57;;
41323;SDS011;27073;51.128;4.220;2022-08-07T02:04:23;7.70;;;5.75;;
41323;SDS011;27073;51.128;4.220;2022-08-07T02:06:58;7.13;;;4.68;;
41323;SDS011;27073;51.128;4.220;2022-08-07T02:09:26;10.18;;;4.90;;
41323;SDS011;27073;51.128;4.220;2022-08-07T02:11:54;6.70;;;4.78;;
41323;SDS011;27073;51.128;4.220;2022-08-07T02:14:23;6.32;;;4.82;;
41323;SDS011;27073;51.128;4.220;2022-08-07T02:16:51;6.82;;;3.97;;
41323;SDS011;27073;51.128;4.220;2022-08-07T02:19:19;6.07;;;4.50;;
41323;SDS011;27073;51.128;4.220;2022-08-07T02:21:46;5.82;;;4.40;;
41323;SDS011;27073;51.128;4.220;2022-08-07T02:24:13;7.00;;;4.70;;
41323;SDS011;27073;51.128;4.220;2022-08-07T02:26:40;5.85;;;4.82;;
41323;SDS011;27073;51.128;4.220;2022-08-07T02:29:07;7.15;;;4.50;;
41323;SDS011;27073;51.128;4.220;2022-08-07T02:31:36;6.05;;;5.00;;
41323;SDS011;27073;51.128;4.220;2022-08-07T02:34:03;7.50;;;5.70;;
41323;SDS011;27073;51.128;4.220;2022-08-07T02:36:36;8.38;;;5.82;;
41323;SDS011;27073;51.128;4.220;2022-08-07T02:39:09;6.97;;;5.38;;
41323;SDS011;27073;51.128;4.220;2022-08-07T02:41:38;7.50;;;6.25;;
41323;SDS011;27073;51.128;4.220;2022-08-07T02:44:05;6.93;;;4.88;;
41323;SDS011;27073;51.128;4.220;2022-08-07T02:46:32;5.68;;;5.03;;
41323;SDS011;27073;51.128;4.220;2022-08-07T02:49:00;5.78;;;4.85;;
41323;SDS011;27073;51.128;4.220;2022-08-07T02:51:28;5.55;;;4.38;;
41323;SDS011;27073;51.128;4.220;2022-08-07T02:53:59;6.30;;;5.50;;
41323;SDS011;27073;51.128;4.220;2022-08-07T02:56:28;6.97;;;6.00;;
41323;SDS011;27073;51.128;4.220;2022-08-07T02:58:55;7.85;;;6.28;;
41323;SDS011;27073;51.128;4.220;2022-08-07T03:01:25;7.53;;;5.53;;
41323;SDS011;27073;51.128;4.220;2022-08-07T03:03:53;8.07;;;5.38;;
41323;SDS011;27073;51.128;4.220;2022-08-07T03:06:24;6.22;;;5.40;;
41323;SDS011;27073;51.128;4.220;2022-08-07T03:08:53;7.35;;;6.13;;
41323;SDS011;27073;51.128;4.220;2022-08-07T03:11:21;8.35;;;6.18;;
41323;SDS011;27073;51.128;4.220;2022-08-07T03:13:47;7.18;;;5.97;;
41323;SDS011;27073;51.128;4.220;2022-08-07T03:16:16;7.70;;;6.68;;
41323;SDS011;27073;51.128;4.220;2022-08-07T03:18:42;7.75;;;6.95;;
41323;SDS011;27073;51.128;4.220;2022-08-07T03:21:09;11.27;;;6.95;;
41323;SDS011;27073;51.128;4.220;2022-08-07T03:23:36;7.70;;;6.90;;
41323;SDS011;27073;51.128;4.220;2022-08-07T03:26:03;7.65;;;6.85;;
41323;SDS011;27073;51.128;4.220;2022-08-07T03:28:34;8.20;;;6.30;;
41323;SDS011;27073;51.128;4.220;2022-08-07T03:31:02;6.55;;;5.93;;
41323;SDS011;27073;51.128;4.220;2022-08-07T03:33:55;7.20;;;6.20;;
41323;SDS011;27073;51.128;4.220;2022-08-07T03:36:24;7.30;;;6.50;;
41323;SDS011;27073;51.128;4.220;2022-08-07T03:38:54;6.85;;;6.15;;
41323;SDS011;27073;51.128;4.220;2022-08-07T03:41:23;9.02;;;6.30;;
41323;SDS011;27073;51.128;4.220;2022-08-07T03:43:50;7.70;;;6.07;;
41323;SDS011;27073;51.128;4.220;2022-08-07T03:46:18;8.48;;;6.10;;
41323;SDS011;27073;51.128;4.220;2022-08-07T03:48:49;7.93;;;6.20;;
41323;SDS011;27073;51.128;4.220;2022-08-07T03:51:15;7.03;;;6.20;;
41323;SDS011;27073;51.128;4.220;2022-08-07T03:53:42;8.23;;;6.90;;
41323;SDS011;27073;51.128;4.220;2022-08-07T03:56:09;8.60;;;6.63;;
41323;SDS011;27073;51.128;4.220;2022-08-07T03:58:37;8.60;;;6.47;;
41323;SDS011;27073;51.128;4.220;2022-08-07T04:01:05;8.32;;;6.80;;
41323;SDS011;27073;51.128;4.220;2022-08-07T04:06:01;8.52;;;6.10;;
41323;SDS011;27073;51.128;4.220;2022-08-07T04:08:27;8.73;;;7.15;;
41323;SDS011;27073;51.128;4.220;2022-08-07T04:10:56;9.75;;;7.05;;
41323;SDS011;27073;51.128;4.220;2022-08-07T04:13:23;8.52;;;7.68;;
41323;SDS011;27073;51.128;4.220;2022-08-07T04:15:49;9.60;;;7.97;;
41323;SDS011;27073;51.128;4.220;2022-08-07T04:18:17;9.63;;;8.35;;
41323;SDS011;27073;51.128;4.220;2022-08-07T04:20:45;8.30;;;7.50;;
41323;SDS011;27073;51.128;4.220;2022-08-07T04:23:12;9.27;;;8.38;;
41323;SDS011;27073;51.128;4.220;2022-08-07T04:25:39;9.85;;;7.93;;
41323;SDS011;27073;51.128;4.220;2022-08-07T04:28:07;10.23;;;8.30;;
41323;SDS011;27073;51.128;4.220;2022-08-07T04:30:36;11.70;;;7.72;;
41323;SDS011;27073;51.128;4.220;2022-08-07T04:33:13;10.95;;;8.00;;
41323;SDS011;27073;51.128;4.220;2022-08-07T04:35:44;13.13;;;7.93;;
41323;SDS011;27073;51.128;4.220;2022-08-07T04:38:13;9.43;;;7.70;;
41323;SDS011;27073;51.128;4.220;2022-08-07T04:40:43;9.07;;;7.28;;
41323;SDS011;27073;51.128;4.220;2022-08-07T04:43:10;11.18;;;7.45;;
41323;SDS011;27073;51.128;4.220;2022-08-07T04:51:03;8.65;;;6.50;;
41323;SDS011;27073;51.128;4.220;2022-08-07T04:53:34;7.90;;;7.03;;
41323;SDS011;27073;51.128;4.220;2022-08-07T04:58:57;8.25;;;6.70;;
41323;SDS011;27073;51.128;4.220;2022-08-07T05:04:11;7.75;;;6.53;;
41323;SDS011;27073;51.128;4.220;2022-08-07T05:09:28;10.10;;;6.82;;
41323;SDS011;27073;51.128;4.220;2022-08-07T05:12:02;8.60;;;7.13;;
41323;SDS011;27073;51.128;4.220;2022-08-07T05:14:38;7.97;;;6.80;;
41323;SDS011;27073;51.128;4.220;2022-08-07T05:17:09;7.13;;;6.20;;
41323;SDS011;27073;51.128;4.220;2022-08-07T05:19:43;6.90;;;6.20;;
41323;SDS011;27073;51.128;4.220;2022-08-07T05:22:14;7.78;;;6.15;;
41323;SDS011;27073;51.128;4.220;2022-08-07T05:24:43;11.02;;;7.38;;
41323;SDS011;27073;51.128;4.220;2022-08-07T05:27:11;7.45;;;6.20;;
41323;SDS011;27073;51.128;4.220;2022-08-07T05:29:40;6.68;;;6.00;;
41323;SDS011;27073;51.128;4.220;2022-08-07T05:32:09;8.13;;;6.28;;
41323;SDS011;27073;51.128;4.220;2022-08-07T05:34:37;6.97;;;6.18;;
41323;SDS011;27073;51.128;4.220;2022-08-07T05:37:06;9.32;;;6.57;;
41323;SDS011;27073;51.128;4.220;2022-08-07T05:39:39;8.40;;;6.75;;
41323;SDS011;27073;51.128;4.220;2022-08-07T05:42:05;6.65;;;5.70;;
41323;SDS011;27073;51.128;4.220;2022-08-07T05:44:34;8.15;;;6.30;;
41323;SDS011;27073;51.128;4.220;2022-08-07T05:47:03;7.10;;;5.70;;
41323;SDS011;27073;51.128;4.220;2022-08-07T05:49:31;5.88;;;5.32;;
41323;SDS011;27073;51.128;4.220;2022-08-07T05:51:57;6.65;;;5.57;;
41323;SDS011;27073;51.128;4.220;2022-08-07T05:54:28;11.82;;;6.00;;
41323;SDS011;27073;51.128;4.220;2022-08-07T05:56:54;7.07;;;5.65;;
41323;SDS011;27073;51.128;4.220;2022-08-07T05:59:22;6.60;;;5.30;;
41323;SDS011;27073;51.128;4.220;2022-08-07T06:01:54;8.30;;;5.10;;
41323;SDS011;27073;51.128;4.220;2022-08-07T06:04:22;6.68;;;5.63;;
41323;SDS011;27073;51.128;4.220;2022-08-07T06:06:48;7.25;;;5.53;;
41323;SDS011;27073;51.128;4.220;2022-08-07T06:09:16;5.90;;;5.30;;
41323;SDS011;27073;51.128;4.220;2022-08-07T06:11:45;7.60;;;5.18;;
41323;SDS011;27073;51.128;4.220;2022-08-07T06:14:11;7.22;;;5.05;;
41323;SDS011;27073;51.128;4.220;2022-08-07T06:16:37;8.18;;;4.80;;
41323;SDS011;27073;51.128;4.220;2022-08-07T06:19:05;5.35;;;4.85;;
41323;SDS011;27073;51.128;4.220;2022-08-07T06:21:33;5.65;;;4.90;;
41323;SDS011;27073;51.128;4.220;2022-08-07T06:24:02;7.57;;;5.22;;
41323;SDS011;27073;51.128;4.220;2022-08-07T06:26:28;7.30;;;5.03;;
41323;SDS011;27073;51.128;4.220;2022-08-07T06:28:56;7.15;;;4.78;;
41323;SDS011;27073;51.128;4.220;2022-08-07T06:31:25;9.27;;;5.50;;
41323;SDS011;27073;51.128;4.220;2022-08-07T06:33:53;6.60;;;4.95;;
41323;SDS011;27073;51.128;4.220;2022-08-07T06:36:19;5.35;;;4.57;;
41323;SDS011;27073;51.128;4.220;2022-08-07T06:38:55;7.13;;;5.00;;
41323;SDS011;27073;51.128;4.220;2022-08-07T06:41:34;5.85;;;4.88;;
41323;SDS011;27073;51.128;4.220;2022-08-07T06:44:05;7.18;;;4.60;;
41323;SDS011;27073;51.128;4.220;2022-08-07T06:46:33;6.63;;;5.00;;
41323;SDS011;27073;51.128;4.220;2022-08-07T06:49:02;6.68;;;4.82;;
41323;SDS011;27073;51.128;4.220;2022-08-07T06:51:28;10.02;;;4.28;;
41323;SDS011;27073;51.128;4.220;2022-08-07T06:53:57;5.30;;;4.57;;
41323;SDS011;27073;51.128;4.220;2022-08-07T06:56:29;8.05;;;4.45;;
41323;SDS011;27073;51.128;4.220;2022-08-07T06:59:14;5.95;;;4.53;;
41323;SDS011;27073;51.128;4.220;2022-08-07T07:01:47;8.25;;;4.57;;
41323;SDS011;27073;51.128;4.220;2022-08-07T07:04:14;6.28;;;4.40;;
41323;SDS011;27073;51.128;4.220;2022-08-07T07:06:41;6.10;;;4.63;;
41323;SDS011;27073;51.128;4.220;2022-08-07T07:09:43;10.68;;;4.30;;
41323;SDS011;27073;51.128;4.220;2022-08-07T07:14:41;5.88;;;4.30;;
41323;SDS011;27073;51.128;4.220;2022-08-07T07:17:11;6.28;;;3.85;;
41323;SDS011;27073;51.128;4.220;2022-08-07T07:19:45;6.65;;;3.47;;
41323;SDS011;27073;51.128;4.220;2022-08-07T07:22:15;5.93;;;3.75;;
41323;SDS011;27073;51.128;4.220;2022-08-07T07:24:43;6.65;;;3.17;;
41323;SDS011;27073;51.128;4.220;2022-08-07T07:27:10;4.90;;;3.20;;
41323;SDS011;27073;51.128;4.220;2022-08-07T07:29:39;5.47;;;3.08;;
41323;SDS011;27073;51.128;4.220;2022-08-07T07:32:11;4.15;;;2.58;;
41323;SDS011;27073;51.128;4.220;2022-08-07T07:34:39;5.63;;;2.58;;
41323;SDS011;27073;51.128;4.220;2022-08-07T07:37:09;3.20;;;2.17;;
41323;SDS011;27073;51.128;4.220;2022-08-07T07:39:37;6.95;;;2.88;;
41323;SDS011;27073;51.128;4.220;2022-08-07T07:42:04;5.43;;;2.28;;
41323;SDS011;27073;51.128;4.220;2022-08-07T07:44:33;4.05;;;2.20;;
41323;SDS011;27073;51.128;4.220;2022-08-07T07:47:02;7.18;;;3.60;;
41323;SDS011;27073;51.128;4.220;2022-08-07T07:49:29;5.05;;;2.13;;
41323;SDS011;27073;51.128;4.220;2022-08-07T07:51:56;4.15;;;2.30;;
41323;SDS011;27073;51.128;4.220;2022-08-07T07:54:24;4.40;;;2.60;;
41323;SDS011;27073;51.128;4.220;2022-08-07T07:56:51;6.40;;;2.78;;
41323;SDS011;27073;51.128;4.220;2022-08-07T07:59:19;9.40;;;2.47;;
41323;SDS011;27073;51.128;4.220;2022-08-07T08:01:45;4.75;;;2.67;;
41323;SDS011;27073;51.128;4.220;2022-08-07T08:04:13;4.50;;;2.00;;
41323;SDS011;27073;51.128;4.220;2022-08-07T08:06:41;3.85;;;2.00;;
41323;SDS011;27073;51.128;4.220;2022-08-07T08:09:09;5.22;;;1.85;;
41323;SDS011;27073;51.128;4.220;2022-08-07T08:11:36;3.85;;;1.90;;
41323;SDS011;27073;51.128;4.220;2022-08-07T08:14:03;4.63;;;2.00;;
41323;SDS011;27073;51.128;4.220;2022-08-07T08:16:39;3.95;;;1.83;;
41323;SDS011;27073;51.128;4.220;2022-08-07T08:19:12;3.53;;;1.50;;
41323;SDS011;27073;51.128;4.220;2022-08-07T08:21:41;3.15;;;1.90;;
41323;SDS011;27073;51.128;4.220;2022-08-07T08:24:30;2.58;;;1.63;;
41323;SDS011;27073;51.128;4.220;2022-08-07T08:27:27;3.22;;;1.50;;
41323;SDS011;27073;51.128;4.220;2022-08-07T08:33:09;3.10;;;1.45;;
41323;SDS011;27073;51.128;4.220;2022-08-07T08:35:29;3.08;;;1.65;;
41323;SDS011;27073;51.128;4.220;2022-08-07T08:37:58;3.78;;;1.60;;
41323;SDS011;27073;51.128;4.220;2022-08-07T08:40:28;4.38;;;1.35;;
41323;SDS011;27073;51.128;4.220;2022-08-07T08:43:18;3.10;;;1.90;;
41323;SDS011;27073;51.128;4.220;2022-08-07T08:45:52;3.78;;;1.65;;
41323;SDS011;27073;51.128;4.220;2022-08-07T08:48:31;3.15;;;1.70;;
41323;SDS011;27073;51.128;4.220;2022-08-07T08:51:18;3.17;;;1.40;;
41323;SDS011;27073;51.128;4.220;2022-08-07T08:54:22;2.58;;;1.30;;
41323;SDS011;27073;51.128;4.220;2022-08-07T08:56:51;2.33;;;1.52;;
41323;SDS011;27073;51.128;4.220;2022-08-07T09:01:53;3.17;;;1.65;;
41323;SDS011;27073;51.128;4.220;2022-08-07T09:04:25;3.28;;;1.50;;
41323;SDS011;27073;51.128;4.220;2022-08-07T09:17:51;4.80;;;2.03;;
41323;SDS011;27073;51.128;4.220;2022-08-07T09:26:08;4.30;;;2.20;;
41323;SDS011;27073;51.128;4.220;2022-08-07T09:28:42;2.97;;;1.80;;
41323;SDS011;27073;51.128;4.220;2022-08-07T09:34:10;3.83;;;1.98;;
41323;SDS011;27073;51.128;4.220;2022-08-07T09:51:02;5.18;;;1.98;;
41323;SDS011;27073;51.128;4.220;2022-08-07T09:53:40;4.93;;;1.50;;
41323;SDS011;27073;51.128;4.220;2022-08-07T09:56:21;5.40;;;1.95;;
41323;SDS011;27073;51.128;4.220;2022-08-07T10:04:24;5.05;;;2.40;;
41323;SDS011;27073;51.128;4.220;2022-08-07T10:10:39;5.60;;;2.00;;
41323;SDS011;27073;51.128;4.220;2022-08-07T10:13:21;5.32;;;2.08;;
41323;SDS011;27073;51.128;4.220;2022-08-07T10:18:44;6.20;;;2.50;;
41323;SDS011;27073;51.128;4.220;2022-08-07T10:32:17;4.00;;;2.42;;
41323;SDS011;27073;51.128;4.220;2022-08-07T10:40:20;5.32;;;2.47;;
41323;SDS011;27073;51.128;4.220;2022-08-07T10:43:29;3.25;;;1.90;;
41323;SDS011;27073;51.128;4.220;2022-08-07T10:46:04;4.03;;;1.83;;
41323;SDS011;27073;51.128;4.220;2022-08-07T10:49:13;3.25;;;1.67;;
41323;SDS011;27073;51.128;4.220;2022-08-07T10:54:20;3.25;;;1.85;;
41323;SDS011;27073;51.128;4.220;2022-08-07T11:00:11;3.38;;;1.67;;
41323;SDS011;27073;51.128;4.220;2022-08-07T11:02:45;4.00;;;2.30;;
41323;SDS011;27073;51.128;4.220;2022-08-07T11:05:22;5.38;;;2.78;;
41323;SDS011;27073;51.128;4.220;2022-08-07T11:08:15;3.90;;;2.20;;
41323;SDS011;27073;51.128;4.220;2022-08-07T11:13:38;6.18;;;2.10;;
41323;SDS011;27073;51.128;4.220;2022-08-07T11:16:16;4.18;;;1.70;;
41323;SDS011;27073;51.128;4.220;2022-08-07T11:21:36;4.05;;;2.33;;
41323;SDS011;27073;51.128;4.220;2022-08-07T11:27:01;5.05;;;2.85;;
41323;SDS011;27073;51.128;4.220;2022-08-07T11:29:37;3.25;;;1.98;;
41323;SDS011;27073;51.128;4.220;2022-08-07T11:32:17;4.40;;;2.00;;
41323;SDS011;27073;51.128;4.220;2022-08-07T11:34:54;4.65;;;1.98;;
41323;SDS011;27073;51.128;4.220;2022-08-07T11:45:41;3.22;;;1.73;;
41323;SDS011;27073;51.128;4.220;2022-08-07T12:01:55;3.95;;;2.25;;
41323;SDS011;27073;51.128;4.220;2022-08-07T12:07:50;4.95;;;2.00;;
41323;SDS011;27073;51.128;4.220;2022-08-07T12:13:11;5.78;;;1.77;;
41323;SDS011;27073;51.128;4.220;2022-08-07T12:15:44;4.22;;;1.95;;
41323;SDS011;27073;51.128;4.220;2022-08-07T12:21:23;2.85;;;1.70;;
41323;SDS011;27073;51.128;4.220;2022-08-07T12:24:13;3.88;;;1.75;;
41323;SDS011;27073;51.128;4.220;2022-08-07T12:35:03;5.22;;;2.10;;
41323;SDS011;27073;51.128;4.220;2022-08-07T12:37:30;3.80;;;1.90;;
41323;SDS011;27073;51.128;4.220;2022-08-07T12:39:57;5.15;;;2.20;;
41323;SDS011;27073;51.128;4.220;2022-08-07T12:42:27;3.67;;;2.03;;
41323;SDS011;27073;51.128;4.220;2022-08-07T12:44:55;3.38;;;2.00;;
41323;SDS011;27073;51.128;4.220;2022-08-07T12:58:47;3.38;;;1.90;;
41323;SDS011;27073;51.128;4.220;2022-08-07T13:01:23;5.28;;;2.15;;
41323;SDS011;27073;51.128;4.220;2022-08-07T13:07:38;3.90;;;1.80;;
41323;SDS011;27073;51.128;4.220;2022-08-07T13:12:50;3.85;;;1.90;;
41323;SDS011;27073;51.128;4.220;2022-08-07T13:15:55;4.03;;;2.10;;
41323;SDS011;27073;51.128;4.220;2022-08-07T13:21:24;2.10;;;1.08;;
41323;SDS011;27073;51.128;4.220;2022-08-07T13:24:02;2.92;;;1.40;;
41323;SDS011;27073;51.128;4.220;2022-08-07T13:26:51;4.53;;;1.33;;
41323;SDS011;27073;51.128;4.220;2022-08-07T13:34:44;3.17;;;1.30;;
41323;SDS011;27073;51.128;4.220;2022-08-07T13:37:28;3.85;;;1.55;;
41323;SDS011;27073;51.128;4.220;2022-08-07T13:42:56;1.92;;;1.00;;
41323;SDS011;27073;51.128;4.220;2022-08-07T13:45:26;3.90;;;1.27;;
41323;SDS011;27073;51.128;4.220;2022-08-07T13:47:54;2.53;;;1.10;;
41323;SDS011;27073;51.128;4.220;2022-08-07T13:50:22;1.52;;;1.10;;
41323;SDS011;27073;51.128;4.220;2022-08-07T13:52:49;4.50;;;1.30;;
41323;SDS011;27073;51.128;4.220;2022-08-07T13:55:18;4.03;;;1.45;;
41323;SDS011;27073;51.128;4.220;2022-08-07T13:57:48;3.63;;;1.30;;
41323;SDS011;27073;51.128;4.220;2022-08-07T14:00:16;2.60;;;1.48;;
41323;SDS011;27073;51.128;4.220;2022-08-07T14:02:43;3.60;;;1.40;;
41323;SDS011;27073;51.128;4.220;2022-08-07T14:05:18;3.28;;;1.60;;
41323;SDS011;27073;51.128;4.220;2022-08-07T14:07:48;3.83;;;1.50;;
41323;SDS011;27073;51.128;4.220;2022-08-07T14:10:17;2.95;;;1.50;;
41323;SDS011;27073;51.128;4.220;2022-08-07T14:15:26;3.33;;;1.58;;
41323;SDS011;27073;51.128;4.220;2022-08-07T14:17:57;2.70;;;1.45;;
41323;SDS011;27073;51.128;4.220;2022-08-07T14:20:28;6.90;;;1.58;;
41323;SDS011;27073;51.128;4.220;2022-08-07T14:23:00;3.35;;;1.45;;
41323;SDS011;27073;51.128;4.220;2022-08-07T14:25:31;3.33;;;1.30;;
41323;SDS011;27073;51.128;4.220;2022-08-07T14:28:01;4.18;;;1.20;;
41323;SDS011;27073;51.128;4.220;2022-08-07T14:30:30;3.38;;;1.50;;
41323;SDS011;27073;51.128;4.220;2022-08-07T14:32:58;2.85;;;1.60;;
41323;SDS011;27073;51.128;4.220;2022-08-07T14:35:33;6.25;;;2.63;;
41323;SDS011;27073;51.128;4.220;2022-08-07T14:38:01;3.70;;;1.48;;
41323;SDS011;27073;51.128;4.220;2022-08-07T14:40:28;3.17;;;1.23;;
41323;SDS011;27073;51.128;4.220;2022-08-07T14:43:11;4.28;;;1.27;;
41323;SDS011;27073;51.128;4.220;2022-08-07T14:45:54;3.20;;;1.33;;
41323;SDS011;27073;51.128;4.220;2022-08-07T14:48:31;2.92;;;1.27;;
41323;SDS011;27073;51.128;4.220;2022-08-07T14:51:00;3.95;;;1.75;;
41323;SDS011;27073;51.128;4.220;2022-08-07T14:53:31;4.72;;;1.40;;
41323;SDS011;27073;51.128;4.220;2022-08-07T14:56:06;3.10;;;1.30;;
41323;SDS011;27073;51.128;4.220;2022-08-07T14:58:34;2.88;;;1.08;;
41323;SDS011;27073;51.128;4.220;2022-08-07T15:01:04;2.75;;;0.90;;
41323;SDS011;27073;51.128;4.220;2022-08-07T15:03:33;2.97;;;1.10;;
41323;SDS011;27073;51.128;4.220;2022-08-07T15:06:00;3.00;;;1.30;;
41323;SDS011;27073;51.128;4.220;2022-08-07T15:08:32;4.82;;;1.00;;
41323;SDS011;27073;51.128;4.220;2022-08-07T15:11:10;2.90;;;1.52;;
41323;SDS011;27073;51.128;4.220;2022-08-07T15:13:55;1.73;;;1.08;;
41323;SDS011;27073;51.128;4.220;2022-08-07T15:16:27;3.13;;;1.00;;
41323;SDS011;27073;51.128;4.220;2022-08-07T15:19:01;2.50;;;1.10;;
41323;SDS011;27073;51.128;4.220;2022-08-07T15:21:32;2.15;;;0.95;;
41323;SDS011;27073;51.128;4.220;2022-08-07T15:24:03;1.85;;;0.93;;
41323;SDS011;27073;51.128;4.220;2022-08-07T15:26:39;1.65;;;0.93;;
41323;SDS011;27073;51.128;4.220;2022-08-07T15:29:11;2.20;;;1.10;;
41323;SDS011;27073;51.128;4.220;2022-08-07T15:34:06;2.85;;;1.10;;
41323;SDS011;27073;51.128;4.220;2022-08-07T15:36:33;3.22;;;1.17;;
41323;SDS011;27073;51.128;4.220;2022-08-07T15:39:02;2.72;;;0.80;;
41323;SDS011;27073;51.128;4.220;2022-08-07T15:41:31;3.17;;;0.88;;
41323;SDS011;27073;51.128;4.220;2022-08-07T15:44:19;1.58;;;0.90;;
41323;SDS011;27073;51.128;4.220;2022-08-07T15:46:46;2.30;;;0.82;;
41323;SDS011;27073;51.128;4.220;2022-08-07T15:49:24;2.83;;;0.95;;
41323;SDS011;27073;51.128;4.220;2022-08-07T15:51:53;3.22;;;1.20;;
41323;SDS011;27073;51.128;4.220;2022-08-07T15:54:20;2.88;;;1.00;;
41323;SDS011;27073;51.128;4.220;2022-08-07T15:56:48;4.75;;;1.30;;
41323;SDS011;27073;51.128;4.220;2022-08-07T15:59:15;3.10;;;1.35;;
41323;SDS011;27073;51.128;4.220;2022-08-07T16:01:48;2.33;;;1.05;;
41323;SDS011;27073;51.128;4.220;2022-08-07T16:04:16;5.05;;;1.08;;
41323;SDS011;27073;51.128;4.220;2022-08-07T16:06:56;3.67;;;1.05;;
41323;SDS011;27073;51.128;4.220;2022-08-07T16:12:31;3.20;;;1.20;;
41323;SDS011;27073;51.128;4.220;2022-08-07T16:15:13;2.47;;;1.00;;
41323;SDS011;27073;51.128;4.220;2022-08-07T16:32:10;2.75;;;1.13;;
41323;SDS011;27073;51.128;4.220;2022-08-07T16:34:48;4.33;;;1.07;;
41323;SDS011;27073;51.128;4.220;2022-08-07T16:40:28;3.30;;;1.35;;
41323;SDS011;27073;51.128;4.220;2022-08-07T16:43:24;3.60;;;1.10;;
41323;SDS011;27073;51.128;4.220;2022-08-07T17:02:00;2.65;;;1.02;;
41323;SDS011;27073;51.128;4.220;2022-08-07T17:07:51;4.32;;;1.20;;
41323;SDS011;27073;51.128;4.220;2022-08-07T17:16:02;3.05;;;0.95;;
41323;SDS011;27073;51.128;4.220;2022-08-07T17:32:29;2.75;;;1.13;;
41323;SDS011;27073;51.128;4.220;2022-08-07T17:35:23;3.67;;;1.65;;
41323;SDS011;27073;51.128;4.220;2022-08-07T17:38:05;3.28;;;1.20;;
41323;SDS011;27073;51.128;4.220;2022-08-07T17:40:43;2.47;;;1.05;;
41323;SDS011;27073;51.128;4.220;2022-08-07T17:43:47;4.65;;;1.10;;
41323;SDS011;27073;51.128;4.220;2022-08-07T17:46:39;2.70;;;1.20;;
41323;SDS011;27073;51.128;4.220;2022-08-07T17:49:18;4.30;;;1.20;;
41323;SDS011;27073;51.128;4.220;2022-08-07T17:52:09;3.30;;;1.65;;
41323;SDS011;27073;51.128;4.220;2022-08-07T17:57:57;4.32;;;1.42;;
41323;SDS011;27073;51.128;4.220;2022-08-07T18:00:28;6.40;;;1.70;;
41323;SDS011;27073;51.128;4.220;2022-08-07T18:08:29;4.75;;;1.40;;
41323;SDS011;27073;51.128;4.220;2022-08-07T18:17:02;5.82;;;1.55;;
41323;SDS011;27073;51.128;4.220;2022-08-07T18:19:54;3.70;;;1.50;;
41323;SDS011;27073;51.128;4.220;2022-08-07T18:22:29;4.15;;;1.38;;
41323;SDS011;27073;51.128;4.220;2022-08-07T18:25:16;2.40;;;1.30;;
41323;SDS011;27073;51.128;4.220;2022-08-07T18:31:16;5.20;;;1.70;;
41323;SDS011;27073;51.128;4.220;2022-08-07T18:45:09;4.38;;;1.42;;
41323;SDS011;27073;51.128;4.220;2022-08-07T18:50:16;3.80;;;1.73;;
41323;SDS011;27073;51.128;4.220;2022-08-07T19:04:20;4.00;;;1.52;;
41323;SDS011;27073;51.128;4.220;2022-08-07T19:07:08;6.78;;;1.90;;
41323;SDS011;27073;51.128;4.220;2022-08-07T19:09:48;6.15;;;1.98;;
41323;SDS011;27073;51.128;4.220;2022-08-07T19:13:00;4.80;;;1.60;;
41323;SDS011;27073;51.128;4.220;2022-08-07T19:15:43;4.90;;;2.17;;
41323;SDS011;27073;51.128;4.220;2022-08-07T19:18:28;3.85;;;2.22;;
41323;SDS011;27073;51.128;4.220;2022-08-07T19:21:15;6.97;;;2.25;;
41323;SDS011;27073;51.128;4.220;2022-08-07T19:23:55;5.18;;;2.00;;
41323;SDS011;27073;51.128;4.220;2022-08-07T19:26:27;8.18;;;2.17;;
41323;SDS011;27073;51.128;4.220;2022-08-07T19:28:59;5.60;;;1.95;;
41323;SDS011;27073;51.128;4.220;2022-08-07T19:31:28;6.03;;;3.03;;
41323;SDS011;27073;51.128;4.220;2022-08-07T19:33:58;5.15;;;2.13;;
41323;SDS011;27073;51.128;4.220;2022-08-07T19:36:26;4.60;;;1.77;;
41323;SDS011;27073;51.128;4.220;2022-08-07T19:38:54;5.70;;;2.58;;
41323;SDS011;27073;51.128;4.220;2022-08-07T19:41:27;6.97;;;2.25;;
41323;SDS011;27073;51.128;4.220;2022-08-07T19:43:58;5.43;;;2.33;;
41323;SDS011;27073;51.128;4.220;2022-08-07T19:46:32;4.60;;;2.95;;
41323;SDS011;27073;51.128;4.220;2022-08-07T19:49:06;3.47;;;2.17;;
41323;SDS011;27073;51.128;4.220;2022-08-07T19:51:37;4.85;;;2.35;;
41323;SDS011;27073;51.128;4.220;2022-08-07T19:54:06;8.43;;;2.43;;
41323;SDS011;27073;51.128;4.220;2022-08-07T19:56:33;4.85;;;2.72;;